Beechmont, Kentucky
Current Conditions -  °F | °C
As of 9:15 PM on Monday 20 Oct 2014 (Local Time) from K2I0 Reporting Station
Scattered Clouds Scattered Clouds  
Wind Chill: 17°   Ceiling: Unl
Heat Index: 17°   Visibility: 10mi
Dew Point: 13°   Wind: 8mph
Humidity: 78%   Direction: 270°W
Pressure: 29.98"   Gusts: NA
Location:  37.17°N, 87.04°W
Report Text: K2I0 210215Z AUTO 27007KT 10SM SCT080 17/13 A2998 RMK AO2 T01700132
Loading
Personal Weather Stations






























Interactive Weather Map
Tropical Storm Tracking
New forecast layout! Learn more

10-Day Weather Forecast

Advertisements
Track Severe Weather on mobile